Time;durP1;ratioP1;P1;durP2;ratioP2;P2;SDS_P1;SDS_P2;PMS_P1;PMS_P2;Temp;Humidity;BMP_temperature;BMP_pressure;BME280_temperature;BME280_humidity;BME280_pressure;Samples;Min_cycle;Max_cycle;Signal;HPM_P1;HPM_P2
2022/07/05 00:00:46;;;;;;;;;;;;;;;16.97;65.28;99867.94;6128530;23;1232;-94
2022/07/05 00:03:13;;;;;;;;;;;;;;;16.96;65.45;99860.84;6128065;23;1340;-94
2022/07/05 00:05:39;;;;;;;;;;;;;;;16.95;65.51;99864.66;6128560;23;1948;-94
2022/07/05 00:08:05;;;;;;;;;;;;;;;16.94;65.46;99863.06;6127723;23;1308;-94
2022/07/05 00:10:32;;;;;;;;;;;;;;;16.93;65.37;99864.13;6129048;23;1117;-94
2022/07/05 00:12:58;;;;;;;;;;;;;;;16.93;65.30;99868.75;6127466;23;1222;-94
2022/07/05 00:15:24;;;;;;;;;;;;;;;16.93;65.35;99860.59;6127594;23;1269;-94
2022/07/05 00:17:51;;;;;;;;;;;;;;;16.91;65.33;99866.34;6128247;23;1196;-95
2022/07/05 00:20:17;;;;;;;;;;;;;;;16.91;65.44;99865.50;6127837;23;1324;-93
2022/07/05 00:22:44;;;;;;;;;;;;;;;16.89;65.42;99863.06;6127882;23;1315;-95
2022/07/05 00:25:10;;;;;;;;;;;;;;;16.89;65.48;99865.78;6127411;23;1893;-94
2022/07/05 00:27:36;;;;;;;;;;;;;;;16.88;65.62;99864.13;6128697;23;1196;-94
2022/07/05 00:30:03;;;;;;;;;;;;;;;16.87;65.38;99873.41;6127718;23;1220;-94
2022/07/05 00:32:29;;;;;;;;;;;;;;;16.86;65.32;99868.25;6127378;23;1332;-94
2022/07/05 00:34:55;;;;;;;;;;;;;;;16.86;65.50;99870.97;6127714;23;1268;-94
2022/07/05 00:37:22;;;;;;;;;;;;;;;16.85;65.53;99866.59;6127796;23;1396;-94
2022/07/05 00:39:48;;;;;;;;;;;;;;;16.84;65.50;99873.16;6127830;23;1171;-96
2022/07/05 00:42:16;;;;;;;;;;;;;;;16.83;65.42;99874.25;6103056;23;1534;-94
2022/07/05 00:44:42;;;;;;;;;;;;;;;16.82;65.40;99873.41;6132633;23;1874;-94
2022/07/05 00:47:08;;;;;;;;;;;;;;;16.81;65.44;99877.22;6131388;23;1285;-93
2022/07/05 00:49:35;;;;;;;;;;;;;;;16.79;65.26;99874.81;6128429;23;1257;-94
2022/07/05 00:52:01;;;;;;;;;;;;;;;16.79;65.29;99873.97;6127966;23;1377;-95
2022/07/05 00:54:27;;;;;;;;;;;;;;;16.78;65.35;99866.91;6127501;23;1312;-94
2022/07/05 00:56:54;;;;;;;;;;;;;;;16.77;65.33;99870.72;6127247;23;1256;-93
2022/07/05 00:59:20;;;;;;;;;;;;;;;16.76;65.20;99867.16;6128517;23;1260;-95
2022/07/05 01:01:46;;;;;;;;;;;;;;;16.75;65.23;99881.84;6127453;23;1219;-94
2022/07/05 01:04:13;;;;;;;;;;;;;;;16.73;65.36;99877.75;6127039;23;1937;-95
2022/07/05 01:06:39;;;;;;;;;;;;;;;16.72;65.22;99882.41;6127676;23;1181;-94
2022/07/05 01:09:05;;;;;;;;;;;;;;;16.72;65.30;99881.59;6127701;23;1173;-95
2022/07/05 01:11:32;;;;;;;;;;;;;;;16.72;65.20;99876.16;6127197;23;1231;-94
2022/07/05 01:13:58;;;;;;;;;;;;;;;16.71;65.31;99875.34;6128252;23;1246;-94
2022/07/05 01:16:25;;;;;;;;;;;;;;;16.70;65.27;99870.97;6129216;23;1305;-94
2022/07/05 01:18:51;;;;;;;;;;;;;;;16.70;65.25;99876.41;6129360;23;1164;-94
2022/07/05 01:21:19;;;;;;;;;;;;;;;16.68;65.34;99875.88;6129260;23;1269;-94
2022/07/05 01:23:46;;;;;;;;;;;;;;;16.67;65.16;99873.44;6129329;23;1119;-94
2022/07/05 01:26:12;;;;;;;;;;;;;;;16.67;65.24;99871.53;6128720;23;1905;-93
2022/07/05 01:28:39;;;;;;;;;;;;;;;16.66;65.22;99874.53;6129188;23;1256;-94
2022/07/05 01:31:05;;;;;;;;;;;;;;;16.65;65.14;99873.72;6129348;23;1240;-94
2022/07/05 01:33:32;;;;;;;;;;;;;;;16.64;65.22;99874.00;6128896;23;1432;-94
2022/07/05 01:35:58;;;;;;;;;;;;;;;16.63;65.14;99873.19;6130457;23;1179;-94
2022/07/05 01:38:25;;;;;;;;;;;;;;;16.62;65.17;99868.00;6129403;23;1176;-94
2022/07/05 01:40:51;;;;;;;;;;;;;;;16.61;65.16;99875.34;6129426;23;1258;-94
2022/07/05 01:43:18;;;;;;;;;;;;;;;16.61;65.17;99874.53;6129005;23;1128;-94
2022/07/05 01:45:44;;;;;;;;;;;;;;;16.61;65.22;99874.53;6128748;23;1947;-94
2022/07/05 01:48:10;;;;;;;;;;;;;;;16.59;65.22;99872.13;6128984;23;1121;-95
2022/07/05 01:50:37;;;;;;;;;;;;;;;16.57;65.15;99871.56;6129282;23;1268;-94
2022/07/05 01:53:03;;;;;;;;;;;;;;;16.56;65.17;99872.66;6128636;23;1263;-93
2022/07/05 01:55:29;;;;;;;;;;;;;;;16.55;65.11;99879.16;6129104;23;1165;-95
2022/07/05 01:57:56;;;;;;;;;;;;;;;16.53;65.25;99881.34;6129424;23;1137;-94
2022/07/05 02:00:22;;;;;;;;;;;;;;;16.52;65.22;99883.25;6128878;23;1455;-94
2022/07/05 02:02:49;;;;;;;;;;;;;;;16.50;65.23;99874.59;6153489;23;1295;-94
2022/07/05 02:05:15;;;;;;;;;;;;;;;16.50;65.22;99880.00;6130229;23;1937;-94
2022/07/05 02:07:41;;;;;;;;;;;;;;;16.49;65.28;99883.00;6128786;23;1236;-95
2022/07/05 02:10:08;;;;;;;;;;;;;;;16.48;65.17;99878.66;6128777;23;1145;-94
2022/07/05 02:12:34;;;;;;;;;;;;;;;16.45;65.32;99877.31;6128958;23;1251;-95
2022/07/05 02:15:00;;;;;;;;;;;;;;;16.45;65.27;99882.75;6128458;23;1172;-94
2022/07/05 02:17:27;;;;;;;;;;;;;;;16.43;65.42;99879.47;6128496;23;1207;-94
2022/07/05 02:19:53;;;;;;;;;;;;;;;16.42;65.26;99883.28;6129023;23;1214;-94
2022/07/05 02:22:20;;;;;;;;;;;;;;;16.41;65.25;99886.25;6128945;23;1264;-94
2022/07/05 02:24:47;;;;;;;;;;;;;;;16.41;65.27;99895.22;6127959;23;1944;-94
2022/07/05 02:27:13;;;;;;;;;;;;;;;16.39;65.30;99894.72;6129057;23;1245;-95
2022/07/05 02:29:39;;;;;;;;;;;;;;;16.38;65.27;99894.97;6129722;23;1199;-94
2022/07/05 02:32:06;;;;;;;;;;;;;;;16.37;65.25;99896.06;6129161;23;1304;-94
2022/07/05 02:34:33;;;;;;;;;;;;;;;16.36;65.28;99903.41;6129785;23;1132;-94
2022/07/05 02:36:59;;;;;;;;;;;;;;;16.35;65.37;99904.47;6128690;23;1145;-94
2022/07/05 02:39:26;;;;;;;;;;;;;;;16.34;65.17;99908.28;6128628;23;1245;-94
2022/07/05 02:41:52;;;;;;;;;;;;;;;16.32;65.21;99913.19;6128420;23;1255;-94
2022/07/05 02:44:18;;;;;;;;;;;;;;;16.32;65.15;99910.47;6128374;23;1148;-94
2022/07/05 02:46:45;;;;;;;;;;;;;;;16.31;65.14;99920.50;6128223;23;1952;-94
2022/07/05 02:49:11;;;;;;;;;;;;;;;16.31;65.20;99919.72;6128605;23;1220;-94
2022/07/05 02:51:38;;;;;;;;;;;;;;;16.29;65.11;99911.81;6128553;23;1156;-94
2022/07/05 02:54:04;;;;;;;;;;;;;;;16.29;65.20;99911.00;6128221;23;1331;-94
2022/07/05 02:56:31;;;;;;;;;;;;;;;16.27;65.25;99914.00;6128830;23;1290;-94
2022/07/05 02:58:57;;;;;;;;;;;;;;;16.27;65.10;99905.88;6128360;23;1170;-94
2022/07/05 03:01:23;;;;;;;;;;;;;;;16.25;65.11;99910.75;6128587;23;1395;-94
2022/07/05 03:03:50;;;;;;;;;;;;;;;16.25;65.14;99913.47;6128092;23;1126;-93
2022/07/05 03:06:16;;;;;;;;;;;;;;;16.25;65.14;99918.91;6129368;23;1909;-94
2022/07/05 03:08:42;;;;;;;;;;;;;;;16.23;65.12;99902.03;6128316;23;1157;-94
2022/07/05 03:11:09;;;;;;;;;;;;;;;16.23;65.20;99907.47;6128467;23;1292;-94
2022/07/05 03:13:35;;;;;;;;;;;;;;;16.21;65.15;99911.56;6128029;23;1194;-93
2022/07/05 03:16:02;;;;;;;;;;;;;;;16.20;65.15;99910.75;6128784;23;1165;-93
2022/07/05 03:18:28;;;;;;;;;;;;;;;16.21;65.17;99915.09;6128649;23;1331;-94
2022/07/05 03:20:54;;;;;;;;;;;;;;;16.20;65.09;99912.66;6128204;23;1311;-94
2022/07/05 03:23:21;;;;;;;;;;;;;;;16.19;65.07;99917.28;6127884;23;1185;-94
2022/07/05 03:25:47;;;;;;;;;;;;;;;16.18;65.11;99920.25;6129032;23;1905;-93
2022/07/05 03:28:14;;;;;;;;;;;;;;;16.15;65.11;99916.19;6128183;23;1132;-94
2022/07/05 03:30:40;;;;;;;;;;;;;;;16.16;65.00;99923.25;6127902;23;1161;-94
2022/07/05 03:33:06;;;;;;;;;;;;;;;16.14;65.05;99919.97;6127633;23;1431;-94
2022/07/05 03:35:33;;;;;;;;;;;;;;;16.14;65.13;99925.41;6127987;23;1225;-94
2022/07/05 03:37:59;;;;;;;;;;;;;;;16.13;65.02;99921.88;6129171;23;1280;-94
2022/07/05 03:40:25;;;;;;;;;;;;;;;16.13;65.04;99931.94;6128258;23;1148;-94
2022/07/05 03:42:52;;;;;;;;;;;;;;;16.12;65.06;99931.13;6127684;23;1212;-94
2022/07/05 03:45:18;;;;;;;;;;;;;;;16.11;64.96;99934.91;6127734;23;1934;-93
2022/07/05 03:47:45;;;;;;;;;;;;;;;16.11;65.02;99934.09;6128266;23;1297;-94
2022/07/05 03:50:11;;;;;;;;;;;;;;;16.10;64.97;99935.19;6128353;23;1331;-94
2022/07/05 03:52:38;;;;;;;;;;;;;;;16.08;65.02;99937.38;6127715;23;1304;-94
2022/07/05 03:55:04;;;;;;;;;;;;;;;16.08;64.96;99932.75;6128037;23;1157;-94
2022/07/05 03:57:30;;;;;;;;;;;;;;;16.08;65.00;99934.66;6128834;23;1149;-93
2022/07/05 03:59:57;;;;;;;;;;;;;;;16.07;64.94;99938.47;6127758;23;1142;-94
2022/07/05 04:02:23;;;;;;;;;;;;;;;16.07;65.00;99941.19;6128058;23;1150;-94
2022/07/05 04:04:49;;;;;;;;;;;;;;;16.07;64.95;99943.88;6128024;23;1947;-94
2022/07/05 04:07:16;;;;;;;;;;;;;;;16.06;64.83;99939.53;6127715;23;1243;-93
2022/07/05 04:09:42;;;;;;;;;;;;;;;16.05;64.90;99940.63;6127594;23;1268;-93
2022/07/05 04:12:09;;;;;;;;;;;;;;;16.03;64.89;99943.63;6127449;23;1149;-94
2022/07/05 04:14:35;;;;;;;;;;;;;;;16.03;64.93;99945.50;6127348;23;1315;-94
2022/07/05 04:17:02;;;;;;;;;;;;;;;16.01;64.91;99947.69;6128107;23;1260;-94
2022/07/05 04:19:28;;;;;;;;;;;;;;;16.01;64.82;99945.78;6128080;23;1260;-93
2022/07/05 04:21:55;;;;;;;;;;;;;;;16.02;64.90;99957.47;6127537;23;1195;-94
2022/07/05 04:24:21;;;;;;;;;;;;;;;16.01;64.89;99955.84;6127310;23;1232;-94
2022/07/05 04:26:47;;;;;;;;;;;;;;;15.99;64.79;99953.38;6128798;23;1952;-93
2022/07/05 04:29:14;;;;;;;;;;;;;;;15.98;64.90;99954.47;6128538;23;1278;-94
2022/07/05 04:31:40;;;;;;;;;;;;;;;15.99;64.71;99960.72;6129651;23;1180;-93
2022/07/05 04:34:07;;;;;;;;;;;;;;;15.98;64.78;99956.38;6127802;23;1280;-94
2022/07/05 04:36:33;;;;;;;;;;;;;;;15.98;64.87;99957.19;6127702;23;1169;-94
2022/07/05 04:38:59;;;;;;;;;;;;;;;15.96;64.76;99956.63;6128176;23;1299;-94
2022/07/05 04:41:26;;;;;;;;;;;;;;;15.95;64.82;99960.44;6127983;23;1401;-93
2022/07/05 04:43:52;;;;;;;;;;;;;;;15.95;64.71;99955.00;6127485;23;1276;-94
2022/07/05 04:46:18;;;;;;;;;;;;;;;15.94;64.66;99956.09;6127451;23;1938;-94
2022/07/05 04:48:45;;;;;;;;;;;;;;;15.94;64.71;99953.38;6127592;23;1220;-94
2022/07/05 04:51:11;;;;;;;;;;;;;;;15.94;64.64;99958.00;6127623;23;1283;-94
2022/07/05 04:53:37;;;;;;;;;;;;;;;15.92;64.71;99957.47;6127179;23;1272;-94
2022/07/05 04:56:05;;;;;;;;;;;;;;;15.91;64.68;99953.91;6127709;23;1216;-94
2022/07/05 04:58:31;;;;;;;;;;;;;;;15.90;64.78;99957.72;6127812;23;1244;-93
2022/07/05 05:00:57;;;;;;;;;;;;;;;15.90;64.65;99958.53;6128208;23;1282;-94
2022/07/05 05:03:24;;;;;;;;;;;;;;;15.91;64.63;99948.47;6127295;23;1177;-94
2022/07/05 05:05:50;;;;;;;;;;;;;;;15.89;64.67;99956.91;6127228;23;1948;-94
2022/07/05 05:08:16;;;;;;;;;;;;;;;15.89;64.66;99954.19;6127485;23;1182;-94
2022/07/05 05:10:43;;;;;;;;;;;;;;;15.89;64.62;99959.63;6128444;23;994;-94
2022/07/05 05:13:09;;;;;;;;;;;;;;;15.89;64.61;99966.97;6127558;23;1171;-94
2022/07/05 05:15:36;;;;;;;;;;;;;;;15.88;64.53;99968.03;6127821;23;1267;-94
2022/07/05 05:18:02;;;;;;;;;;;;;;;15.88;64.56;99970.75;6127729;23;1179;-94
2022/07/05 05:20:29;;;;;;;;;;;;;;;15.87;64.56;99975.34;6127265;23;1268;-94
2022/07/05 05:22:56;;;;;;;;;;;;;;;15.87;64.62;99971.84;6127215;23;1438;-94
2022/07/05 05:25:22;;;;;;;;;;;;;;;15.87;64.63;99978.06;6127983;23;1948;-93
2022/07/05 05:27:49;;;;;;;;;;;;;;;15.87;64.48;99979.97;6127533;23;1236;-94
2022/07/05 05:30:15;;;;;;;;;;;;;;;15.87;64.44;99975.34;6127160;23;1236;-94
2022/07/05 05:32:41;;;;;;;;;;;;;;;15.86;64.36;99979.16;6126839;23;1264;-94
2022/07/05 05:35:08;;;;;;;;;;;;;;;15.84;64.51;99975.91;6127525;23;1152;-93
2022/07/05 05:37:34;;;;;;;;;;;;;;;15.86;64.54;99981.06;6127738;23;1201;-94
2022/07/05 05:40:00;;;;;;;;;;;;;;;15.85;64.44;99976.72;6127514;23;1264;-95
2022/07/05 05:42:27;;;;;;;;;;;;;;;15.85;64.42;99977.53;6127609;23;1244;-93
2022/07/05 05:44:53;;;;;;;;;;;;;;;15.85;64.47;99982.13;6126961;23;1335;-93
2022/07/05 05:47:20;;;;;;;;;;;;;;;15.85;64.38;99977.53;6126941;23;1913;-94
2022/07/05 05:49:46;;;;;;;;;;;;;;;15.83;64.35;99977.00;6127879;23;1330;-94
2022/07/05 05:52:13;;;;;;;;;;;;;;;15.85;64.29;99982.13;6127348;23;1244;-94
2022/07/05 05:54:39;;;;;;;;;;;;;;;15.83;64.30;99982.41;6126912;23;1166;-94
2022/07/05 05:57:06;;;;;;;;;;;;;;;15.82;64.34;99988.09;6127175;23;1185;-94
2022/07/05 05:59:32;;;;;;;;;;;;;;;15.83;64.34;99987.03;6128088;23;1172;-94
2022/07/05 06:01:59;;;;;;;;;;;;;;;15.83;64.26;99987.84;6129016;23;1296;-93
2022/07/05 06:04:25;;;;;;;;;;;;;;;15.83;64.26;99993.28;6130157;23;859;-94
2022/07/05 06:06:52;;;;;;;;;;;;;;;15.83;64.17;99996.00;6128896;23;1905;-94
2022/07/05 06:09:18;;;;;;;;;;;;;;;15.83;64.23;99989.75;6129181;23;1201;-94
2022/07/05 06:11:46;;;;;;;;;;;;;;;15.82;64.32;99991.63;6128550;23;1157;-93
2022/07/05 06:14:12;;;;;;;;;;;;;;;15.84;64.23;99991.38;6128291;23;1305;-93
2022/07/05 06:16:39;;;;;;;;;;;;;;;15.82;64.19;99988.91;6128678;23;1210;-94
2022/07/05 06:19:05;;;;;;;;;;;;;;;15.82;64.21;99986.19;6128744;23;1153;-94
2022/07/05 06:21:31;;;;;;;;;;;;;;;15.81;64.30;99990.00;6129153;23;1169;-94
2022/07/05 06:23:58;;;;;;;;;;;;;;;15.82;64.27;99990.81;6128555;23;1394;-95
2022/07/05 06:26:24;;;;;;;;;;;;;;;15.82;64.19;99996.25;6128656;23;1928;-95
2022/07/05 06:28:51;;;;;;;;;;;;;;;15.82;64.23;99994.34;6128546;23;1160;-95
2022/07/05 06:31:18;;;;;;;;;;;;;;;15.82;64.22;99988.09;6128755;23;1475;-94
2022/07/05 06:33:44;;;;;;;;;;;;;;;15.82;64.20;99991.63;6128813;23;1149;-94
2022/07/05 06:36:10;;;;;;;;;;;;;;;15.82;64.16;99996.25;6128981;23;1155;-94
2022/07/05 06:38:37;;;;;;;;;;;;;;;15.83;64.10;100006.03;6129035;23;1116;-93
2022/07/05 06:41:05;;;;;;;;;;;;;;;15.83;64.01;100008.75;6128715;23;1217;-93
2022/07/05 06:43:33;;;;;;;;;;;;;;;15.80;64.08;100001.97;6128253;23;1448;-94
2022/07/05 06:46:00;;;;;;;;;;;;;;;15.80;64.10;100007.41;6128324;23;1905;-94
2022/07/05 06:48:29;;;;;;;;;;;;;;;15.81;64.09;100003.59;6129072;23;1139;-94
2022/07/05 06:50:56;;;;;;;;;;;;;;;15.81;63.94;100009.00;6128405;23;1251;-93
2022/07/05 06:53:22;;;;;;;;;;;;;;;15.80;63.93;100012.81;6128526;23;1267;-93
2022/07/05 06:55:48;;;;;;;;;;;;;;;15.80;64.09;100018.25;6128400;23;1188;-95
2022/07/05 06:58:16;;;;;;;;;;;;;;;15.82;64.12;100017.97;6128480;23;1177;-94
2022/07/05 07:00:42;;;;;;;;;;;;;;;15.82;64.08;100018.78;6128782;23;1398;-94
2022/07/05 07:03:09;;;;;;;;;;;;;;;15.82;63.99;100026.13;6128101;23;1153;-94
2022/07/05 07:05:36;;;;;;;;;;;;;;;15.81;64.08;100021.78;6128318;23;1909;-94
2022/07/05 07:10:46;;;;;;;;;;;;;;;15.82;64.06;100024.22;6127954;23;1181;-93
2022/07/05 07:13:13;;;;;;;;;;;;;;;15.82;64.05;100024.22;6128072;23;1193;-94
2022/07/05 07:15:40;;;;;;;;;;;;;;;15.81;64.02;100027.22;6129519;23;1257;-93
2022/07/05 07:18:06;;;;;;;;;;;;;;;15.79;64.17;100024.75;6128271;23;1417;-93
2022/07/05 07:20:33;;;;;;;;;;;;;;;15.80;64.07;100020.16;6128393;23;1105;-93
2022/07/05 07:22:59;;;;;;;;;;;;;;;15.80;64.03;100026.41;6128443;23;1278;-94
2022/07/05 07:25:25;;;;;;;;;;;;;;;15.80;64.15;100020.16;6128000;23;1222;-94
2022/07/05 07:27:52;;;;;;;;;;;;;;;15.83;64.02;100022.34;6128712;23;1897;-94
2022/07/05 07:30:18;;;;;;;;;;;;;;;15.81;64.00;100025.31;6128131;23;1245;-93
2022/07/05 07:32:44;;;;;;;;;;;;;;;15.81;63.95;100024.50;6127910;23;1236;-94
2022/07/05 07:35:11;;;;;;;;;;;;;;;15.79;63.99;100019.31;6128401;23;1176;-94
2022/07/05 07:37:37;;;;;;;;;;;;;;;15.81;64.05;100027.22;6128128;23;1247;-94
2022/07/05 07:40:03;;;;;;;;;;;;;;;15.81;63.97;100028.03;6128212;23;1257;-94
2022/07/05 07:42:30;;;;;;;;;;;;;;;15.82;63.97;100026.13;6127923;23;1118;-94
2022/07/05 07:44:56;;;;;;;;;;;;;;;15.81;63.98;100028.03;6127751;23;1372;-94
2022/07/05 07:47:22;;;;;;;;;;;;;;;15.83;64.19;100025.06;6128107;23;1943;-93
2022/07/05 07:49:49;;;;;;;;;;;;;;;15.83;63.95;100025.06;6127912;23;1164;-94
2022/07/05 07:52:15;;;;;;;;;;;;;;;15.81;63.98;100019.06;6128240;23;1379;-93
2022/07/05 07:54:42;;;;;;;;;;;;;;;15.80;64.12;100018.25;6127775;23;1153;-93
2022/07/05 07:57:08;;;;;;;;;;;;;;;15.82;64.03;100021.50;6128084;23;1189;-93
2022/07/05 07:59:34;;;;;;;;;;;;;;;15.83;64.02;100022.34;6128185;23;1224;-93
2022/07/05 08:02:01;;;;;;;;;;;;;;;15.83;63.96;100019.63;6127775;23;1446;-93
2022/07/05 08:04:27;;;;;;;;;;;;;;;15.83;63.92;100023.16;6128012;23;1272;-93
2022/07/05 08:06:53;;;;;;;;;;;;;;;15.83;63.94;100030.47;6127511;23;1908;-93
2022/07/05 08:09:20;;;;;;;;;;;;;;;15.82;63.93;100023.41;6127734;23;1235;-94
2022/07/05 08:11:46;;;;;;;;;;;;;;;15.84;64.06;100029.38;6127585;23;1265;-93
2022/07/05 08:14:12;;;;;;;;;;;;;;;15.85;63.91;100025.59;6152453;23;1260;-93
2022/07/05 08:16:39;;;;;;;;;;;;;;;15.84;63.91;100026.69;6127614;23;1239;-93
2022/07/05 08:21:49;;;;;;;;;;;;;;;15.84;63.94;100023.97;6128940;23;1061;-93
2022/07/05 08:24:15;;;;;;;;;;;;;;;15.84;63.92;100027.50;6127979;23;1277;-93
2022/07/05 08:26:42;;;;;;;;;;;;;;;15.85;63.79;100033.72;6127244;23;1897;-93
2022/07/05 08:29:08;;;;;;;;;;;;;;;15.85;63.86;100037.28;6127167;23;1350;-93
2022/07/05 08:31:34;;;;;;;;;;;;;;;15.86;64.00;100033.47;6129157;23;890;-93
2022/07/05 08:34:01;;;;;;;;;;;;;;;15.88;63.93;100031.31;6127360;23;1229;-94
2022/07/05 08:36:27;;;;;;;;;;;;;;;15.87;63.87;100032.38;6128019;23;1166;-93
2022/07/05 08:38:53;;;;;;;;;;;;;;;15.87;63.85;100023.41;6127907;23;1308;-93
2022/07/05 08:41:20;;;;;;;;;;;;;;;15.89;63.90;100040.28;6127239;23;1267;-93
2022/07/05 08:43:46;;;;;;;;;;;;;;;15.88;63.98;100030.47;6127609;23;1248;-93
2022/07/05 08:46:13;;;;;;;;;;;;;;;15.88;63.94;100030.47;6127544;23;1948;-93
2022/07/05 08:48:42;;;;;;;;;;;;;;;15.88;64.04;100034.03;6127767;23;1194;-93
2022/07/05 08:51:08;;;;;;;;;;;;;;;15.89;63.91;100043.00;6128114;23;1358;-93
2022/07/05 08:53:35;;;;;;;;;;;;;;;15.90;63.89;100045.41;6127227;23;1189;-93
2022/07/05 08:56:01;;;;;;;;;;;;;;;15.90;63.85;100042.72;6128800;23;1069;-93
2022/07/05 08:58:27;;;;;;;;;;;;;;;15.90;63.95;100040.00;6128652;23;1105;-93
2022/07/05 09:00:54;;;;;;;;;;;;;;;15.91;63.92;100040.81;6127312;23;1157;-94
2022/07/05 09:03:20;;;;;;;;;;;;;;;15.90;63.95;100042.72;6127269;23;1278;-94
2022/07/05 09:05:46;;;;;;;;;;;;;;;15.93;63.94;100045.97;6127973;23;1341;-94
2022/07/05 09:08:13;;;;;;;;;;;;;;;15.92;63.96;100039.75;6127230;23;1948;-94
2022/07/05 09:10:39;;;;;;;;;;;;;;;15.93;63.98;100040.56;6127915;23;1463;-94
2022/07/05 09:13:06;;;;;;;;;;;;;;;15.94;63.92;100053.03;6127952;23;1255;-94
2022/07/05 09:15:32;;;;;;;;;;;;;;;15.94;63.92;100045.69;6127919;23;1214;-94
2022/07/05 09:17:58;;;;;;;;;;;;;;;15.94;63.85;100051.13;6128435;23;1197;-93
2022/07/05 09:20:25;;;;;;;;;;;;;;;15.95;63.99;100052.78;6127238;23;1371;-94
2022/07/05 09:22:52;;;;;;;;;;;;;;;15.95;64.01;100060.94;6127668;23;1134;-94
2022/07/05 09:25:19;;;;;;;;;;;;;;;15.96;63.95;100053.59;6127315;23;1220;-94
2022/07/05 09:27:45;;;;;;;;;;;;;;;15.95;63.99;100047.34;6128390;23;1946;-94
2022/07/05 09:30:11;;;;;;;;;;;;;;;15.97;63.94;100056.06;6127216;23;1259;-94
2022/07/05 09:32:38;;;;;;;;;;;;;;;16.00;64.05;100054.69;6128153;23;1108;-94
2022/07/05 09:35:04;;;;;;;;;;;;;;;15.99;64.05;100053.88;6128314;23;1161;-93
2022/07/05 09:37:31;;;;;;;;;;;;;;;15.99;64.02;100051.16;6129193;23;1118;-94
2022/07/05 09:39:57;;;;;;;;;;;;;;;16.00;64.09;100051.97;6129411;23;1142;-94
2022/07/05 09:42:24;;;;;;;;;;;;;;;16.01;64.02;100048.19;6129446;23;1236;-94
2022/07/05 09:44:50;;;;;;;;;;;;;;;16.00;64.11;100044.66;6128923;23;1288;-94
2022/07/05 09:47:17;;;;;;;;;;;;;;;16.03;64.05;100048.72;6129642;23;1893;-94
2022/07/05 09:49:43;;;;;;;;;;;;;;;16.03;64.04;100046.84;6128927;23;1141;-94
2022/07/05 09:52:10;;;;;;;;;;;;;;;16.02;64.12;100045.19;6129081;23;1177;-94
2022/07/05 09:54:36;;;;;;;;;;;;;;;16.03;64.23;100048.72;6128702;23;1130;-94
2022/07/05 09:57:02;;;;;;;;;;;;;;;16.02;64.20;100057.94;6128953;23;1153;-94
2022/07/05 09:59:29;;;;;;;;;;;;;;;16.03;64.30;100051.44;6129249;23;1114;-93
2022/07/05 10:01:55;;;;;;;;;;;;;;;16.03;64.16;100049.56;6128953;23;1133;-93
2022/07/05 10:04:21;;;;;;;;;;;;;;;16.02;64.16;100047.91;6128786;23;1208;-94
2022/07/05 10:06:48;;;;;;;;;;;;;;;16.02;64.33;100055.22;6128758;23;1940;-94
2022/07/05 10:09:15;;;;;;;;;;;;;;;16.04;64.26;100051.16;6129057;23;1295;-94
2022/07/05 10:11:41;;;;;;;;;;;;;;;16.05;64.37;100049.28;6128714;23;1247;-94
2022/07/05 10:14:08;;;;;;;;;;;;;;;16.06;64.36;100056.31;6128793;23;1245;-94
2022/07/05 10:16:34;;;;;;;;;;;;;;;16.07;64.29;100064.22;6129044;23;1263;-94
2022/07/05 10:19:00;;;;;;;;;;;;;;;16.07;64.39;100069.66;6128802;23;1149;-94
2022/07/05 10:21:27;;;;;;;;;;;;;;;16.10;64.35;100065.59;6129845;23;910;-93
2022/07/05 10:23:53;;;;;;;;;;;;;;;16.11;64.31;100070.72;6128868;23;1146;-93
2022/07/05 10:26:20;;;;;;;;;;;;;;;16.11;64.50;100067.22;6128502;23;1274;-93
2022/07/05 10:28:46;;;;;;;;;;;;;;;16.12;64.49;100061.53;6128624;23;1927;-94
2022/07/05 10:31:13;;;;;;;;;;;;;;;16.11;64.49;100065.31;6129384;23;1256;-93
2022/07/05 10:33:39;;;;;;;;;;;;;;;16.13;64.51;100065.84;6128501;23;1226;-96
2022/07/05 10:36:05;;;;;;;;;;;;;;;16.15;64.55;100068.31;6128547;23;1164;-93
2022/07/05 10:38:32;;;;;;;;;;;;;;;16.15;64.63;100075.63;6128667;23;1135;-94
2022/07/05 10:40:58;;;;;;;;;;;;;;;16.16;64.55;100067.22;6128442;23;1216;-93
2022/07/05 10:43:24;;;;;;;;;;;;;;;16.14;64.72;100066.66;6128341;23;1188;-94
2022/07/05 10:45:51;;;;;;;;;;;;;;;16.13;64.67;100070.47;6127953;23;1326;-93
2022/07/05 10:48:17;;;;;;;;;;;;;;;16.14;64.71;100074.81;6128409;23;1885;-94
2022/07/05 10:50:43;;;;;;;;;;;;;;;16.14;64.60;100069.38;6128462;23;1236;-94
2022/07/05 10:53:10;;;;;;;;;;;;;;;16.15;64.58;100073.75;6129763;23;851;-94
2022/07/05 10:55:36;;;;;;;;;;;;;;;16.16;64.66;100066.41;6129437;23;1245;-94
2022/07/05 10:58:02;;;;;;;;;;;;;;;16.17;64.73;100065.31;6128495;23;1118;-94
2022/07/05 11:00:29;;;;;;;;;;;;;;;16.16;64.58;100069.94;6129104;23;1523;-93
2022/07/05 11:02:55;;;;;;;;;;;;;;;16.18;64.64;100077.81;6128076;23;1374;-93
2022/07/05 11:05:22;;;;;;;;;;;;;;;16.17;64.70;100070.75;6128264;23;1256;-94
2022/07/05 11:07:48;;;;;;;;;;;;;;;16.19;64.65;100074.03;6128516;23;1909;-93
2022/07/05 11:10:14;;;;;;;;;;;;;;;16.20;64.69;100079.19;6128158;23;1173;-94
2022/07/05 11:12:41;;;;;;;;;;;;;;;16.22;64.74;100085.16;6128185;23;1141;-94
2022/07/05 11:15:08;;;;;;;;;;;;;;;16.23;64.76;100081.34;6128538;23;1224;-93
2022/07/05 11:17:36;;;;;;;;;;;;;;;16.25;64.82;100087.34;6128518;23;1154;-94
2022/07/05 11:20:03;;;;;;;;;;;;;;;16.25;64.95;100075.66;6130006;23;918;-93
2022/07/05 11:22:29;;;;;;;;;;;;;;;16.25;64.97;100086.53;6129496;23;969;-94
2022/07/05 11:24:55;;;;;;;;;;;;;;;16.23;64.93;100089.50;6128155;23;1277;-94
2022/07/05 11:27:22;;;;;;;;;;;;;;;16.22;64.82;100084.34;6128379;23;1967;-94
2022/07/05 11:29:49;;;;;;;;;;;;;;;16.24;64.85;100093.06;6128017;23;1413;-93
2022/07/05 11:32:15;;;;;;;;;;;;;;;16.25;64.88;100095.50;6128299;23;1156;-93
2022/07/05 11:34:42;;;;;;;;;;;;;;;16.25;64.81;100091.97;6129207;23;799;-94
2022/07/05 11:37:08;;;;;;;;;;;;;;;16.26;64.83;100093.59;6128322;23;1232;-93
2022/07/05 11:39:34;;;;;;;;;;;;;;;16.26;65.06;100088.97;6127976;23;1256;-94
2022/07/05 11:42:01;;;;;;;;;;;;;;;16.24;64.61;100088.44;6128156;23;1276;-94
2022/07/05 11:44:27;;;;;;;;;;;;;;;16.28;64.82;100094.97;6127797;23;1263;-96
2022/07/05 11:46:54;;;;;;;;;;;;;;;16.32;64.69;100090.63;6127622;23;1905;-94
2022/07/05 11:49:20;;;;;;;;;;;;;;;16.33;64.90;100092.25;6127981;23;1151;-93
2022/07/05 11:51:47;;;;;;;;;;;;;;;16.33;65.05;100096.88;6127706;23;1223;-94
2022/07/05 11:54:13;;;;;;;;;;;;;;;16.37;65.02;100089.00;6127978;23;1306;-94
2022/07/05 11:56:39;;;;;;;;;;;;;;;16.37;65.03;100092.53;6127869;23;1218;-93
2022/07/05 11:59:06;;;;;;;;;;;;;;;16.37;65.25;100086.28;6127796;23;1284;-94
2022/07/05 12:01:32;;;;;;;;;;;;;;;16.35;64.95;100091.97;6128463;23;1175;-94
2022/07/05 12:03:58;;;;;;;;;;;;;;;16.37;65.15;100092.53;6128902;23;1264;-93
2022/07/05 12:06:25;;;;;;;;;;;;;;;16.41;65.23;100103.69;6129226;23;1283;-96
2022/07/05 12:08:51;;;;;;;;;;;;;;;16.43;65.12;100102.31;6127617;23;1902;-94
2022/07/05 12:14:02;;;;;;;;;;;;;;;16.43;65.35;100102.31;6127517;23;1240;-93
2022/07/05 12:16:28;;;;;;;;;;;;;;;16.44;65.35;100098.53;6127855;23;1434;-93
2022/07/05 12:18:55;;;;;;;;;;;;;;;16.46;65.37;100101.78;6127521;23;1272;-95
2022/07/05 12:21:22;;;;;;;;;;;;;;;16.47;65.31;100099.88;6127763;23;1125;-96
2022/07/05 12:23:48;;;;;;;;;;;;;;;16.49;65.44;100103.16;6128013;23;1128;-96
2022/07/05 12:26:14;;;;;;;;;;;;;;;16.52;65.33;100099.91;6127804;23;1353;-94
2022/07/05 12:28:41;;;;;;;;;;;;;;;16.51;65.22;100104.50;6127479;23;1897;-94
2022/07/05 12:31:07;;;;;;;;;;;;;;;16.52;65.32;100105.31;6127559;23;1244;-95
2022/07/05 12:33:33;;;;;;;;;;;;;;;16.53;65.35;100109.66;6127379;23;1305;-94
2022/07/05 12:36:00;;;;;;;;;;;;;;;16.54;65.25;100103.97;6127764;23;1148;-94
2022/07/05 12:38:26;;;;;;;;;;;;;;;16.54;65.38;100114.03;6127815;23;1253;-94
2022/07/05 12:40:52;;;;;;;;;;;;;;;16.55;65.44;100118.38;6127284;23;1319;-94
2022/07/05 12:43:19;;;;;;;;;;;;;;;16.54;65.50;100116.75;6127422;23;1335;-94
2022/07/05 12:45:45;;;;;;;;;;;;;;;16.55;65.45;100119.19;6127146;23;1271;-93
2022/07/05 12:48:11;;;;;;;;;;;;;;;16.53;65.62;100123.25;6127481;23;1949;-94
2022/07/05 12:50:38;;;;;;;;;;;;;;;16.57;65.64;100124.38;6127764;23;1508;-95
2022/07/05 12:58:32;;;;;;;;;;;;;;;16.60;65.46;100129.28;6127378;23;1192;-95
2022/07/05 13:00:59;;;;;;;;;;;;;;;16.62;65.45;100128.97;6127636;23;1204;-95